sensor_id;sensor_type;location;lat;lon;timestamp;temperature;humidity
19880;DHT22;10102;50.828;4.416;2023-03-14T00:02:21;12.60;99.90
19880;DHT22;10102;50.828;4.416;2023-03-14T00:04:47;12.50;99.90
19880;DHT22;10102;50.828;4.416;2023-03-14T00:07:13;12.60;99.90
19880;DHT22;10102;50.828;4.416;2023-03-14T00:09:38;12.50;99.90
19880;DHT22;10102;50.828;4.416;2023-03-14T00:12:04;12.40;99.90
19880;DHT22;10102;50.828;4.416;2023-03-14T00:14:31;12.30;99.90
19880;DHT22;10102;50.828;4.416;2023-03-14T00:16:57;12.30;99.90
19880;DHT22;10102;50.828;4.416;2023-03-14T00:19:22;12.20;99.90
19880;DHT22;10102;50.828;4.416;2023-03-14T00:24:14;12.30;99.90
19880;DHT22;10102;50.828;4.416;2023-03-14T00:26:40;12.40;99.90
19880;DHT22;10102;50.828;4.416;2023-03-14T00:29:05;12.40;99.90
19880;DHT22;10102;50.828;4.416;2023-03-14T00:31:31;12.40;99.90
19880;DHT22;10102;50.828;4.416;2023-03-14T00:33:57;12.40;99.90
19880;DHT22;10102;50.828;4.416;2023-03-14T00:36:23;12.30;99.90
19880;DHT22;10102;50.828;4.416;2023-03-14T00:38:50;12.30;99.90
19880;DHT22;10102;50.828;4.416;2023-03-14T00:41:22;12.30;99.90
19880;DHT22;10102;50.828;4.416;2023-03-14T00:43:48;12.20;99.90
19880;DHT22;10102;50.828;4.416;2023-03-14T00:46:15;12.40;99.90
19880;DHT22;10102;50.828;4.416;2023-03-14T00:48:41;12.40;99.90
19880;DHT22;10102;50.828;4.416;2023-03-14T00:51:08;12.40;99.90
19880;DHT22;10102;50.828;4.416;2023-03-14T00:53:38;12.40;99.90
19880;DHT22;10102;50.828;4.416;2023-03-14T00:56:06;12.90;99.90
19880;DHT22;10102;50.828;4.416;2023-03-14T00:58:33;12.30;99.90
19880;DHT22;10102;50.828;4.416;2023-03-14T01:00:58;12.30;99.90
19880;DHT22;10102;50.828;4.416;2023-03-14T01:03:24;12.30;99.90
19880;DHT22;10102;50.828;4.416;2023-03-14T01:05:50;12.30;99.90
19880;DHT22;10102;50.828;4.416;2023-03-14T01:08:16;12.30;99.90
19880;DHT22;10102;50.828;4.416;2023-03-14T01:10:42;12.40;99.90
19880;DHT22;10102;50.828;4.416;2023-03-14T01:13:08;12.40;99.90
19880;DHT22;10102;50.828;4.416;2023-03-14T01:15:36;12.30;99.90
19880;DHT22;10102;50.828;4.416;2023-03-14T01:18:02;12.40;99.90
19880;DHT22;10102;50.828;4.416;2023-03-14T01:20:28;12.30;99.90
19880;DHT22;10102;50.828;4.416;2023-03-14T01:22:55;12.40;99.90
19880;DHT22;10102;50.828;4.416;2023-03-14T01:25:21;12.40;99.90
19880;DHT22;10102;50.828;4.416;2023-03-14T01:27:46;12.10;99.90
19880;DHT22;10102;50.828;4.416;2023-03-14T01:30:12;12.10;99.90
19880;DHT22;10102;50.828;4.416;2023-03-14T01:32:38;12.00;99.90
19880;DHT22;10102;50.828;4.416;2023-03-14T01:35:04;12.00;99.90
19880;DHT22;10102;50.828;4.416;2023-03-14T01:39:56;11.80;99.90
19880;DHT22;10102;50.828;4.416;2023-03-14T01:42:22;11.60;99.90
19880;DHT22;10102;50.828;4.416;2023-03-14T01:47:20;11.90;99.90
19880;DHT22;10102;50.828;4.416;2023-03-14T01:49:53;11.90;99.90
19880;DHT22;10102;50.828;4.416;2023-03-14T01:52:31;11.80;99.90
19880;DHT22;10102;50.828;4.416;2023-03-14T01:55:04;11.70;99.90
19880;DHT22;10102;50.828;4.416;2023-03-14T01:57:38;11.40;99.90
19880;DHT22;10102;50.828;4.416;2023-03-14T02:00:16;11.20;99.90
19880;DHT22;10102;50.828;4.416;2023-03-14T02:02:50;11.10;99.90
19880;DHT22;10102;50.828;4.416;2023-03-14T02:05:23;11.00;99.90
19880;DHT22;10102;50.828;4.416;2023-03-14T02:07:54;11.00;99.90
19880;DHT22;10102;50.828;4.416;2023-03-14T02:10:28;10.90;99.90
19880;DHT22;10102;50.828;4.416;2023-03-14T02:12:56;10.50;99.90
19880;DHT22;10102;50.828;4.416;2023-03-14T02:15:23;10.70;99.90
19880;DHT22;10102;50.828;4.416;2023-03-14T02:17:49;11.20;99.90
19880;DHT22;10102;50.828;4.416;2023-03-14T02:23:03;10.80;99.90
19880;DHT22;10102;50.828;4.416;2023-03-14T02:25:48;10.80;99.90
19880;DHT22;10102;50.828;4.416;2023-03-14T02:28:16;10.80;99.90
19880;DHT22;10102;50.828;4.416;2023-03-14T02:30:43;10.80;99.90
19880;DHT22;10102;50.828;4.416;2023-03-14T02:33:17;10.90;99.90
19880;DHT22;10102;50.828;4.416;2023-03-14T02:38:33;10.80;99.90
19880;DHT22;10102;50.828;4.416;2023-03-14T02:41:00;10.70;99.90
19880;DHT22;10102;50.828;4.416;2023-03-14T02:43:25;10.70;99.90
19880;DHT22;10102;50.828;4.416;2023-03-14T02:45:52;10.60;99.90
19880;DHT22;10102;50.828;4.416;2023-03-14T02:48:27;10.60;99.90
19880;DHT22;10102;50.828;4.416;2023-03-14T02:50:57;10.50;99.90
19880;DHT22;10102;50.828;4.416;2023-03-14T02:53:28;10.60;99.90
19880;DHT22;10102;50.828;4.416;2023-03-14T02:55:55;10.70;99.90
19880;DHT22;10102;50.828;4.416;2023-03-14T02:58:21;10.60;99.90
19880;DHT22;10102;50.828;4.416;2023-03-14T03:00:47;10.60;99.90
19880;DHT22;10102;50.828;4.416;2023-03-14T03:03:13;10.60;99.90
19880;DHT22;10102;50.828;4.416;2023-03-14T03:05:38;10.30;99.90
19880;DHT22;10102;50.828;4.416;2023-03-14T03:08:05;10.70;99.90
19880;DHT22;10102;50.828;4.416;2023-03-14T03:10:31;10.80;99.90
19880;DHT22;10102;50.828;4.416;2023-03-14T03:12:57;10.70;99.90
19880;DHT22;10102;50.828;4.416;2023-03-14T03:15:23;10.50;99.90
19880;DHT22;10102;50.828;4.416;2023-03-14T03:17:48;10.90;99.90
19880;DHT22;10102;50.828;4.416;2023-03-14T03:20:14;10.80;99.90
19880;DHT22;10102;50.828;4.416;2023-03-14T03:22:40;10.90;99.90
19880;DHT22;10102;50.828;4.416;2023-03-14T03:25:07;10.90;99.90
19880;DHT22;10102;50.828;4.416;2023-03-14T03:27:34;10.90;99.90
19880;DHT22;10102;50.828;4.416;2023-03-14T03:32:26;10.90;99.90
19880;DHT22;10102;50.828;4.416;2023-03-14T03:34:52;10.80;99.90
19880;DHT22;10102;50.828;4.416;2023-03-14T03:37:18;10.90;99.90
19880;DHT22;10102;50.828;4.416;2023-03-14T03:39:44;10.90;99.90
19880;DHT22;10102;50.828;4.416;2023-03-14T03:42:09;10.90;99.90
19880;DHT22;10102;50.828;4.416;2023-03-14T03:44:35;10.80;99.90
19880;DHT22;10102;50.828;4.416;2023-03-14T03:47:01;10.90;99.90
19880;DHT22;10102;50.828;4.416;2023-03-14T03:49:31;10.90;99.90
19880;DHT22;10102;50.828;4.416;2023-03-14T03:51:57;11.00;99.90
19880;DHT22;10102;50.828;4.416;2023-03-14T03:54:23;11.10;99.90
19880;DHT22;10102;50.828;4.416;2023-03-14T03:56:48;11.10;99.90
19880;DHT22;10102;50.828;4.416;2023-03-14T03:59:14;11.10;99.90
19880;DHT22;10102;50.828;4.416;2023-03-14T04:01:40;11.00;99.90
19880;DHT22;10102;50.828;4.416;2023-03-14T04:04:06;11.00;99.90
19880;DHT22;10102;50.828;4.416;2023-03-14T04:06:32;10.60;99.90
19880;DHT22;10102;50.828;4.416;2023-03-14T04:11:24;10.90;99.90
19880;DHT22;10102;50.828;4.416;2023-03-14T04:13:49;11.00;99.90
19880;DHT22;10102;50.828;4.416;2023-03-14T04:16:18;11.10;99.90
19880;DHT22;10102;50.828;4.416;2023-03-14T04:18:44;11.10;99.90
19880;DHT22;10102;50.828;4.416;2023-03-14T04:21:10;11.10;99.90
19880;DHT22;10102;50.828;4.416;2023-03-14T04:23:35;11.10;99.90
19880;DHT22;10102;50.828;4.416;2023-03-14T04:28:28;11.10;99.90
19880;DHT22;10102;50.828;4.416;2023-03-14T04:30:54;11.10;99.90
19880;DHT22;10102;50.828;4.416;2023-03-14T04:33:19;11.50;99.90
19880;DHT22;10102;50.828;4.416;2023-03-14T04:35:46;11.20;99.90
19880;DHT22;10102;50.828;4.416;2023-03-14T04:38:12;11.20;99.90
19880;DHT22;10102;50.828;4.416;2023-03-14T04:40:41;11.30;99.90
19880;DHT22;10102;50.828;4.416;2023-03-14T04:43:11;11.30;99.90
19880;DHT22;10102;50.828;4.416;2023-03-14T04:45:40;11.30;99.90
19880;DHT22;10102;50.828;4.416;2023-03-14T04:48:06;11.30;99.90
19880;DHT22;10102;50.828;4.416;2023-03-14T04:50:32;11.40;99.90
19880;DHT22;10102;50.828;4.416;2023-03-14T04:52:58;11.40;99.90
19880;DHT22;10102;50.828;4.416;2023-03-14T04:55:23;11.00;99.90
19880;DHT22;10102;50.828;4.416;2023-03-14T04:57:49;11.20;99.90
19880;DHT22;10102;50.828;4.416;2023-03-14T05:00:15;11.30;99.90
19880;DHT22;10102;50.828;4.416;2023-03-14T05:02:43;11.30;99.90
19880;DHT22;10102;50.828;4.416;2023-03-14T05:05:09;11.20;99.90
19880;DHT22;10102;50.828;4.416;2023-03-14T05:07:35;11.10;99.90
19880;DHT22;10102;50.828;4.416;2023-03-14T05:10:01;11.30;99.90
19880;DHT22;10102;50.828;4.416;2023-03-14T05:12:26;11.30;99.90
19880;DHT22;10102;50.828;4.416;2023-03-14T05:19:45;11.30;99.90
19880;DHT22;10102;50.828;4.416;2023-03-14T05:22:11;11.40;99.90
19880;DHT22;10102;50.828;4.416;2023-03-14T05:24:37;11.30;99.90
19880;DHT22;10102;50.828;4.416;2023-03-14T05:27:03;11.30;99.90
19880;DHT22;10102;50.828;4.416;2023-03-14T05:29:29;11.30;99.90
19880;DHT22;10102;50.828;4.416;2023-03-14T05:31:55;11.40;99.90
19880;DHT22;10102;50.828;4.416;2023-03-14T05:34:21;11.30;99.90
19880;DHT22;10102;50.828;4.416;2023-03-14T05:36:47;11.20;99.90
19880;DHT22;10102;50.828;4.416;2023-03-14T05:39:12;11.30;99.90
19880;DHT22;10102;50.828;4.416;2023-03-14T05:41:38;11.20;99.90
19880;DHT22;10102;50.828;4.416;2023-03-14T05:44:04;11.20;99.90
19880;DHT22;10102;50.828;4.416;2023-03-14T05:46:29;11.00;99.90
19880;DHT22;10102;50.828;4.416;2023-03-14T05:48:59;11.20;99.90
19880;DHT22;10102;50.828;4.416;2023-03-14T05:51:25;11.20;99.90
19880;DHT22;10102;50.828;4.416;2023-03-14T05:53:51;11.20;99.90
19880;DHT22;10102;50.828;4.416;2023-03-14T05:56:16;10.80;99.90
19880;DHT22;10102;50.828;4.416;2023-03-14T05:58:42;11.00;99.90
19880;DHT22;10102;50.828;4.416;2023-03-14T06:01:08;11.20;99.90
19880;DHT22;10102;50.828;4.416;2023-03-14T06:03:34;11.20;99.90
19880;DHT22;10102;50.828;4.416;2023-03-14T06:06:01;11.10;99.90
19880;DHT22;10102;50.828;4.416;2023-03-14T06:08:27;11.30;99.90
19880;DHT22;10102;50.828;4.416;2023-03-14T06:10:53;11.30;99.90
19880;DHT22;10102;50.828;4.416;2023-03-14T06:13:20;11.30;99.90
19880;DHT22;10102;50.828;4.416;2023-03-14T06:15:45;11.40;99.90
19880;DHT22;10102;50.828;4.416;2023-03-14T06:18:11;11.40;99.90
19880;DHT22;10102;50.828;4.416;2023-03-14T06:20:38;11.40;99.90
19880;DHT22;10102;50.828;4.416;2023-03-14T06:23:05;11.20;99.90
19880;DHT22;10102;50.828;4.416;2023-03-14T06:25:32;11.40;99.90
19880;DHT22;10102;50.828;4.416;2023-03-14T06:30:23;11.40;99.90
19880;DHT22;10102;50.828;4.416;2023-03-14T06:32:49;11.20;99.90
19880;DHT22;10102;50.828;4.416;2023-03-14T06:35:15;11.40;99.90
19880;DHT22;10102;50.828;4.416;2023-03-14T06:37:41;11.20;99.90
19880;DHT22;10102;50.828;4.416;2023-03-14T06:40:09;11.30;99.90
19880;DHT22;10102;50.828;4.416;2023-03-14T06:42:36;11.20;99.90
19880;DHT22;10102;50.828;4.416;2023-03-14T06:45:02;11.60;99.90
19880;DHT22;10102;50.828;4.416;2023-03-14T06:47:29;11.10;99.90
19880;DHT22;10102;50.828;4.416;2023-03-14T06:49:56;11.10;99.90
19880;DHT22;10102;50.828;4.416;2023-03-14T06:52:22;10.70;99.90
19880;DHT22;10102;50.828;4.416;2023-03-14T06:54:48;10.40;99.90
19880;DHT22;10102;50.828;4.416;2023-03-14T06:57:13;10.30;99.90
19880;DHT22;10102;50.828;4.416;2023-03-14T06:59:39;9.90;99.90
19880;DHT22;10102;50.828;4.416;2023-03-14T07:02:11;9.70;99.90
19880;DHT22;10102;50.828;4.416;2023-03-14T07:04:38;9.60;99.90
19880;DHT22;10102;50.828;4.416;2023-03-14T07:07:05;9.50;99.90
19880;DHT22;10102;50.828;4.416;2023-03-14T07:09:31;9.60;99.90
19880;DHT22;10102;50.828;4.416;2023-03-14T07:14:23;9.10;99.90
19880;DHT22;10102;50.828;4.416;2023-03-14T07:16:49;9.10;99.90
19880;DHT22;10102;50.828;4.416;2023-03-14T07:21:40;8.90;99.90
19880;DHT22;10102;50.828;4.416;2023-03-14T07:24:06;8.70;99.90
19880;DHT22;10102;50.828;4.416;2023-03-14T07:26:32;8.50;99.90
19880;DHT22;10102;50.828;4.416;2023-03-14T07:28:58;8.50;99.90
19880;DHT22;10102;50.828;4.416;2023-03-14T07:31:23;8.60;99.90
19880;DHT22;10102;50.828;4.416;2023-03-14T07:33:49;8.50;99.90
19880;DHT22;10102;50.828;4.416;2023-03-14T07:36:16;8.50;99.90
19880;DHT22;10102;50.828;4.416;2023-03-14T07:41:08;8.50;99.90
19880;DHT22;10102;50.828;4.416;2023-03-14T07:43:34;8.40;99.90
19880;DHT22;10102;50.828;4.416;2023-03-14T07:46:00;8.30;99.90
19880;DHT22;10102;50.828;4.416;2023-03-14T07:48:26;8.30;99.90
19880;DHT22;10102;50.828;4.416;2023-03-14T07:50:53;8.30;99.90
19880;DHT22;10102;50.828;4.416;2023-03-14T07:53:20;8.50;99.90
19880;DHT22;10102;50.828;4.416;2023-03-14T07:55:47;8.50;99.90
19880;DHT22;10102;50.828;4.416;2023-03-14T07:58:13;8.60;99.90
19880;DHT22;10102;50.828;4.416;2023-03-14T08:00:39;8.50;99.90
19880;DHT22;10102;50.828;4.416;2023-03-14T08:03:05;8.60;99.90
19880;DHT22;10102;50.828;4.416;2023-03-14T08:05:30;8.70;99.90
19880;DHT22;10102;50.828;4.416;2023-03-14T08:07:59;8.70;99.90
19880;DHT22;10102;50.828;4.416;2023-03-14T08:10:24;8.60;99.90
19880;DHT22;10102;50.828;4.416;2023-03-14T08:12:51;8.60;99.90
19880;DHT22;10102;50.828;4.416;2023-03-14T08:15:18;8.60;99.90
19880;DHT22;10102;50.828;4.416;2023-03-14T08:17:44;8.50;99.90
19880;DHT22;10102;50.828;4.416;2023-03-14T08:20:11;8.40;99.90
19880;DHT22;10102;50.828;4.416;2023-03-14T08:29:57;8.50;99.90
19880;DHT22;10102;50.828;4.416;2023-03-14T08:32:22;8.50;99.90
19880;DHT22;10102;50.828;4.416;2023-03-14T08:37:15;8.50;99.90
19880;DHT22;10102;50.828;4.416;2023-03-14T08:39:41;8.30;99.90
19880;DHT22;10102;50.828;4.416;2023-03-14T08:42:06;8.40;99.90
19880;DHT22;10102;50.828;4.416;2023-03-14T08:44:32;8.30;99.90
19880;DHT22;10102;50.828;4.416;2023-03-14T08:49:24;8.30;99.90
19880;DHT22;10102;50.828;4.416;2023-03-14T08:51:49;8.30;99.90
19880;DHT22;10102;50.828;4.416;2023-03-14T08:54:15;8.00;99.90
19880;DHT22;10102;50.828;4.416;2023-03-14T08:56:42;8.00;99.90
19880;DHT22;10102;50.828;4.416;2023-03-14T09:01:39;7.80;99.90
19880;DHT22;10102;50.828;4.416;2023-03-14T09:04:08;7.80;99.90
19880;DHT22;10102;50.828;4.416;2023-03-14T09:06:35;7.70;99.90
19880;DHT22;10102;50.828;4.416;2023-03-14T09:09:03;7.70;99.90
19880;DHT22;10102;50.828;4.416;2023-03-14T09:11:28;7.60;99.90
19880;DHT22;10102;50.828;4.416;2023-03-14T09:13:54;7.90;99.90
19880;DHT22;10102;50.828;4.416;2023-03-14T09:16:20;7.80;99.90
19880;DHT22;10102;50.828;4.416;2023-03-14T09:18:46;7.80;99.90
19880;DHT22;10102;50.828;4.416;2023-03-14T09:21:12;7.70;99.90
19880;DHT22;10102;50.828;4.416;2023-03-14T09:23:39;7.30;99.90
19880;DHT22;10102;50.828;4.416;2023-03-14T09:26:05;7.60;99.90
19880;DHT22;10102;50.828;4.416;2023-03-14T09:28:32;7.70;99.90
19880;DHT22;10102;50.828;4.416;2023-03-14T09:30:58;7.60;99.90
19880;DHT22;10102;50.828;4.416;2023-03-14T09:33:23;7.60;99.90
19880;DHT22;10102;50.828;4.416;2023-03-14T09:35:49;7.60;99.90
19880;DHT22;10102;50.828;4.416;2023-03-14T09:40:41;7.80;99.90
19880;DHT22;10102;50.828;4.416;2023-03-14T09:43:12;7.60;99.90
19880;DHT22;10102;50.828;4.416;2023-03-14T09:45:40;7.60;99.90
19880;DHT22;10102;50.828;4.416;2023-03-14T09:48:14;7.70;99.90
19880;DHT22;10102;50.828;4.416;2023-03-14T09:50:49;7.60;99.90
19880;DHT22;10102;50.828;4.416;2023-03-14T09:53:22;7.60;99.90
19880;DHT22;10102;50.828;4.416;2023-03-14T09:55:50;7.60;99.90
19880;DHT22;10102;50.828;4.416;2023-03-14T09:58:20;7.60;99.90
19880;DHT22;10102;50.828;4.416;2023-03-14T10:00:46;7.50;99.90
19880;DHT22;10102;50.828;4.416;2023-03-14T10:05:39;7.50;99.90
19880;DHT22;10102;50.828;4.416;2023-03-14T10:10:32;7.70;99.90
19880;DHT22;10102;50.828;4.416;2023-03-14T10:15:35;8.10;99.90
19880;DHT22;10102;50.828;4.416;2023-03-14T10:18:03;7.90;99.90
19880;DHT22;10102;50.828;4.416;2023-03-14T10:20:38;8.50;99.90
19880;DHT22;10102;50.828;4.416;2023-03-14T10:25:44;8.30;99.90
19880;DHT22;10102;50.828;4.416;2023-03-14T10:28:28;8.20;99.90
19880;DHT22;10102;50.828;4.416;2023-03-14T10:30:55;8.00;99.90
19880;DHT22;10102;50.828;4.416;2023-03-14T10:33:32;7.80;99.90
19880;DHT22;10102;50.828;4.416;2023-03-14T10:36:06;7.80;99.90
19880;DHT22;10102;50.828;4.416;2023-03-14T10:38:40;7.60;99.90
19880;DHT22;10102;50.828;4.416;2023-03-14T10:43:43;7.50;99.90
19880;DHT22;10102;50.828;4.416;2023-03-14T10:46:13;7.60;99.90
19880;DHT22;10102;50.828;4.416;2023-03-14T10:48:39;7.50;99.90
19880;DHT22;10102;50.828;4.416;2023-03-14T10:54:29;7.20;99.90
19880;DHT22;10102;50.828;4.416;2023-03-14T10:56:34;7.40;99.90
19880;DHT22;10102;50.828;4.416;2023-03-14T10:59:01;7.50;99.90
19880;DHT22;10102;50.828;4.416;2023-03-14T11:02:00;7.40;99.90
19880;DHT22;10102;50.828;4.416;2023-03-14T11:07:13;7.40;99.90
19880;DHT22;10102;50.828;4.416;2023-03-14T11:15:31;7.50;99.90
19880;DHT22;10102;50.828;4.416;2023-03-14T11:18:10;7.70;99.90
19880;DHT22;10102;50.828;4.416;2023-03-14T11:23:50;7.70;99.90
19880;DHT22;10102;50.828;4.416;2023-03-14T11:28:50;7.70;99.90
19880;DHT22;10102;50.828;4.416;2023-03-14T11:31:28;7.70;99.90
19880;DHT22;10102;50.828;4.416;2023-03-14T11:39:20;7.50;99.90
19880;DHT22;10102;50.828;4.416;2023-03-14T11:41:51;7.50;99.90
19880;DHT22;10102;50.828;4.416;2023-03-14T11:44:30;7.50;99.90
19880;DHT22;10102;50.828;4.416;2023-03-14T11:47:12;7.30;99.90
19880;DHT22;10102;50.828;4.416;2023-03-14T11:50:00;6.80;99.90
19880;DHT22;10102;50.828;4.416;2023-03-14T11:55:13;6.80;99.90
19880;DHT22;10102;50.828;4.416;2023-03-14T11:57:42;6.70;99.90
19880;DHT22;10102;50.828;4.416;2023-03-14T12:00:16;6.60;99.90
19880;DHT22;10102;50.828;4.416;2023-03-14T12:10:40;6.80;99.90
19880;DHT22;10102;50.828;4.416;2023-03-14T12:13:09;7.00;99.90
19880;DHT22;10102;50.828;4.416;2023-03-14T12:15:40;7.80;99.90
19880;DHT22;10102;50.828;4.416;2023-03-14T12:18:20;6.60;99.90
19880;DHT22;10102;50.828;4.416;2023-03-14T12:20:54;6.90;99.90
19880;DHT22;10102;50.828;4.416;2023-03-14T12:23:20;6.90;99.90
19880;DHT22;10102;50.828;4.416;2023-03-14T12:25:46;6.80;99.90
19880;DHT22;10102;50.828;4.416;2023-03-14T12:28:20;6.40;99.90
19880;DHT22;10102;50.828;4.416;2023-03-14T12:30:47;6.60;99.90
19880;DHT22;10102;50.828;4.416;2023-03-14T12:33:20;7.00;99.90
19880;DHT22;10102;50.828;4.416;2023-03-14T12:35:52;6.60;99.90
19880;DHT22;10102;50.828;4.416;2023-03-14T12:38:52;6.60;99.90
19880;DHT22;10102;50.828;4.416;2023-03-14T12:41:25;6.50;99.90
19880;DHT22;10102;50.828;4.416;2023-03-14T12:43:52;6.50;99.90
19880;DHT22;10102;50.828;4.416;2023-03-14T12:48:45;6.60;99.90
19880;DHT22;10102;50.828;4.416;2023-03-14T12:51:17;6.70;99.90
19880;DHT22;10102;50.828;4.416;2023-03-14T12:53:48;6.50;99.90
19880;DHT22;10102;50.828;4.416;2023-03-14T12:56:28;6.60;99.90
19880;DHT22;10102;50.828;4.416;2023-03-14T12:59:29;6.80;99.90
19880;DHT22;10102;50.828;4.416;2023-03-14T13:02:10;6.70;99.90
19880;DHT22;10102;50.828;4.416;2023-03-14T13:05:22;6.70;99.90
19880;DHT22;10102;50.828;4.416;2023-03-14T13:13:23;6.90;99.90
19880;DHT22;10102;50.828;4.416;2023-03-14T13:16:00;7.00;99.90
19880;DHT22;10102;50.828;4.416;2023-03-14T13:18:49;6.90;99.90
19880;DHT22;10102;50.828;4.416;2023-03-14T13:21:20;7.10;99.90
19880;DHT22;10102;50.828;4.416;2023-03-14T13:24:01;7.00;99.90
19880;DHT22;10102;50.828;4.416;2023-03-14T13:26:42;6.90;99.90
19880;DHT22;10102;50.828;4.416;2023-03-14T13:29:30;7.30;99.90
19880;DHT22;10102;50.828;4.416;2023-03-14T13:32:01;7.00;99.90
19880;DHT22;10102;50.828;4.416;2023-03-14T13:34:32;6.70;99.90
19880;DHT22;10102;50.828;4.416;2023-03-14T13:36:58;6.90;99.90
19880;DHT22;10102;50.828;4.416;2023-03-14T13:39:26;7.00;99.90
19880;DHT22;10102;50.828;4.416;2023-03-14T13:41:58;7.10;99.90
19880;DHT22;10102;50.828;4.416;2023-03-14T13:44:32;7.40;99.90
19880;DHT22;10102;50.828;4.416;2023-03-14T13:47:01;7.50;99.90
19880;DHT22;10102;50.828;4.416;2023-03-14T13:49:28;7.60;99.90
19880;DHT22;10102;50.828;4.416;2023-03-14T13:51:54;7.70;99.90
19880;DHT22;10102;50.828;4.416;2023-03-14T13:54:21;7.70;99.90
19880;DHT22;10102;50.828;4.416;2023-03-14T13:56:48;7.70;99.90
19880;DHT22;10102;50.828;4.416;2023-03-14T13:59:25;7.80;99.90
19880;DHT22;10102;50.828;4.416;2023-03-14T14:01:51;7.70;99.90
19880;DHT22;10102;50.828;4.416;2023-03-14T14:04:20;7.90;99.90
19880;DHT22;10102;50.828;4.416;2023-03-14T14:06:54;7.80;99.90
19880;DHT22;10102;50.828;4.416;2023-03-14T14:09:28;7.80;99.90
19880;DHT22;10102;50.828;4.416;2023-03-14T14:12:05;8.00;99.90
19880;DHT22;10102;50.828;4.416;2023-03-14T14:15:03;8.20;99.90
19880;DHT22;10102;50.828;4.416;2023-03-14T14:20:02;8.40;99.90
19880;DHT22;10102;50.828;4.416;2023-03-14T14:22:30;8.10;99.90
19880;DHT22;10102;50.828;4.416;2023-03-14T14:24:57;8.40;99.90
19880;DHT22;10102;50.828;4.416;2023-03-14T14:27:33;8.30;99.90
19880;DHT22;10102;50.828;4.416;2023-03-14T14:30:05;8.30;99.90
19880;DHT22;10102;50.828;4.416;2023-03-14T14:32:38;8.20;99.90
19880;DHT22;10102;50.828;4.416;2023-03-14T14:35:04;8.50;99.90
19880;DHT22;10102;50.828;4.416;2023-03-14T14:37:33;8.50;99.90
19880;DHT22;10102;50.828;4.416;2023-03-14T14:40:06;8.50;99.90
19880;DHT22;10102;50.828;4.416;2023-03-14T14:42:33;8.40;99.90
19880;DHT22;10102;50.828;4.416;2023-03-14T14:44:59;8.60;99.90
19880;DHT22;10102;50.828;4.416;2023-03-14T14:47:28;8.50;99.90
19880;DHT22;10102;50.828;4.416;2023-03-14T14:49:58;8.40;99.90
19880;DHT22;10102;50.828;4.416;2023-03-14T14:52:43;6.70;99.90
19880;DHT22;10102;50.828;4.416;2023-03-14T14:55:18;8.20;99.90
19880;DHT22;10102;50.828;4.416;2023-03-14T14:57:52;7.80;99.90
19880;DHT22;10102;50.828;4.416;2023-03-14T15:00:24;7.70;99.90
19880;DHT22;10102;50.828;4.416;2023-03-14T15:02:51;7.60;99.90
19880;DHT22;10102;50.828;4.416;2023-03-14T15:05:23;7.40;99.90
19880;DHT22;10102;50.828;4.416;2023-03-14T15:07:48;7.20;99.90
19880;DHT22;10102;50.828;4.416;2023-03-14T15:10:17;7.20;99.90
19880;DHT22;10102;50.828;4.416;2023-03-14T15:12:44;7.20;99.90
19880;DHT22;10102;50.828;4.416;2023-03-14T15:15:10;7.40;99.90
19880;DHT22;10102;50.828;4.416;2023-03-14T15:17:37;7.50;99.90
19880;DHT22;10102;50.828;4.416;2023-03-14T15:20:04;7.60;99.90
19880;DHT22;10102;50.828;4.416;2023-03-14T15:22:30;7.70;99.90
19880;DHT22;10102;50.828;4.416;2023-03-14T15:27:22;8.10;99.90
19880;DHT22;10102;50.828;4.416;2023-03-14T15:29:48;8.30;99.90
19880;DHT22;10102;50.828;4.416;2023-03-14T15:32:15;8.60;99.90
19880;DHT22;10102;50.828;4.416;2023-03-14T15:37:13;8.70;99.90
19880;DHT22;10102;50.828;4.416;2023-03-14T15:39:39;8.70;99.90
19880;DHT22;10102;50.828;4.416;2023-03-14T15:46:57;8.70;99.90
19880;DHT22;10102;50.828;4.416;2023-03-14T15:49:23;8.90;99.90
19880;DHT22;10102;50.828;4.416;2023-03-14T15:51:48;8.80;99.90
19880;DHT22;10102;50.828;4.416;2023-03-14T15:54:14;8.90;99.90
19880;DHT22;10102;50.828;4.416;2023-03-14T15:56:40;8.80;99.90
19880;DHT22;10102;50.828;4.416;2023-03-14T15:59:05;8.80;99.90
19880;DHT22;10102;50.828;4.416;2023-03-14T16:01:31;8.90;99.90
19880;DHT22;10102;50.828;4.416;2023-03-14T16:08:49;8.60;99.90
19880;DHT22;10102;50.828;4.416;2023-03-14T16:11:15;8.50;99.90
19880;DHT22;10102;50.828;4.416;2023-03-14T16:16:09;8.50;99.90
19880;DHT22;10102;50.828;4.416;2023-03-14T16:18:38;8.30;99.90
19880;DHT22;10102;50.828;4.416;2023-03-14T16:21:15;8.30;99.90
19880;DHT22;10102;50.828;4.416;2023-03-14T16:23:41;8.10;99.90
19880;DHT22;10102;50.828;4.416;2023-03-14T16:26:12;8.30;99.90
19880;DHT22;10102;50.828;4.416;2023-03-14T16:28:40;8.40;99.90
19880;DHT22;10102;50.828;4.416;2023-03-14T16:31:11;8.30;99.90
19880;DHT22;10102;50.828;4.416;2023-03-14T16:33:38;8.40;99.90
19880;DHT22;10102;50.828;4.416;2023-03-14T16:36:06;8.40;99.90
19880;DHT22;10102;50.828;4.416;2023-03-14T16:38:36;8.50;99.90
19880;DHT22;10102;50.828;4.416;2023-03-14T16:41:09;8.70;99.90
19880;DHT22;10102;50.828;4.416;2023-03-14T16:43:35;8.30;99.90
19880;DHT22;10102;50.828;4.416;2023-03-14T16:46:05;8.40;99.90
19880;DHT22;10102;50.828;4.416;2023-03-14T16:48:31;8.30;99.90
19880;DHT22;10102;50.828;4.416;2023-03-14T16:50:57;8.10;99.90
19880;DHT22;10102;50.828;4.416;2023-03-14T16:55:49;8.50;99.90
19880;DHT22;10102;50.828;4.416;2023-03-14T16:58:15;8.30;99.90
19880;DHT22;10102;50.828;4.416;2023-03-14T17:00:44;8.40;99.90
19880;DHT22;10102;50.828;4.416;2023-03-14T17:03:10;8.40;99.90
19880;DHT22;10102;50.828;4.416;2023-03-14T17:05:36;8.40;99.90
19880;DHT22;10102;50.828;4.416;2023-03-14T17:08:02;8.40;99.90
19880;DHT22;10102;50.828;4.416;2023-03-14T17:10:27;8.40;99.90
19880;DHT22;10102;50.828;4.416;2023-03-14T17:12:53;8.50;99.90
19880;DHT22;10102;50.828;4.416;2023-03-14T17:15:19;8.40;99.90
19880;DHT22;10102;50.828;4.416;2023-03-14T17:20:11;8.40;99.90
19880;DHT22;10102;50.828;4.416;2023-03-14T17:22:37;8.20;99.90
19880;DHT22;10102;50.828;4.416;2023-03-14T17:25:02;8.30;99.90
19880;DHT22;10102;50.828;4.416;2023-03-14T17:27:28;8.20;99.90
19880;DHT22;10102;50.828;4.416;2023-03-14T17:29:54;8.40;99.90
19880;DHT22;10102;50.828;4.416;2023-03-14T17:34:46;8.30;99.90
19880;DHT22;10102;50.828;4.416;2023-03-14T17:37:12;8.30;99.90
19880;DHT22;10102;50.828;4.416;2023-03-14T17:39:38;8.20;99.90
19880;DHT22;10102;50.828;4.416;2023-03-14T17:42:06;8.20;99.90
19880;DHT22;10102;50.828;4.416;2023-03-14T17:44:33;8.10;99.90
19880;DHT22;10102;50.828;4.416;2023-03-14T17:46:59;8.20;99.90
19880;DHT22;10102;50.828;4.416;2023-03-14T17:49:26;7.90;99.90
19880;DHT22;10102;50.828;4.416;2023-03-14T17:51:51;7.80;99.90
19880;DHT22;10102;50.828;4.416;2023-03-14T17:54:17;7.60;99.90
19880;DHT22;10102;50.828;4.416;2023-03-14T17:56:43;8.00;99.90
19880;DHT22;10102;50.828;4.416;2023-03-14T17:59:10;7.60;99.90
19880;DHT22;10102;50.828;4.416;2023-03-14T18:01:36;7.40;99.90